This is the latest recevied weather packets stored in our database for station/object N7MLR. If no packets are shown the sender has not sent any weather packets the latest 10 day(s).
| Time | Temp. | Humidity | Pressure | Rain* | Wind** | Luminosity | Snow |
|---|---|---|---|---|---|---|---|
| 1777643720 | 14.44° C | 99% | 1012.2 hPa | 0 mm | - | 62 W/m² | - |
| 1777643418 | 14.44° C | 99% | 1012.8 hPa | 0 mm | - | 69 W/m² | - |
| 1777643115 | 14.44° C | 99% | 1013.1 hPa | 0 mm | - | 75 W/m² | - |
| 1777642811 | 14.44° C | 99% | 1013.1 hPa | 3.05 mm | - | 67 W/m² | - |
| 1777642508 | 15° C | 99% | 1013.3 hPa | 9.65 mm | - | 49 W/m² | - |
| 1777642204 | 15° C | 99% | 1010.7 hPa | 9.65 mm | - | 12 W/m² | - |
| 1777641901 | 15° C | 99% | 1013.6 hPa | 3.05 mm | - | 4 W/m² | - |
| 1777641596 | 15° C | 99% | 1016 hPa | 0 mm | - | 0 W/m² | - |
| 1777641296 | 15° C | 99% | 1015 hPa | 0 mm | - | 0 W/m² | - |
| 1777640993 | 15° C | 99% | 1014 hPa | 1.27 mm | - | 1 W/m² | - |
| 1777640689 | 15° C | 99% | 1013.4 hPa | 3.05 mm | - | 1 W/m² | - |
| 1777640385 | 15° C | 99% | 1013 hPa | 3.05 mm | - | 3 W/m² | - |
| 1777640083 | 15° C | 99% | 1012.9 hPa | 3.05 mm | - | 4 W/m² | - |
| 1777639779 | 15° C | 99% | 1013.4 hPa | 3.05 mm | - | 2 W/m² | - |
| 1777639477 | 15° C | 99% | 1012.8 hPa | 1.27 mm | - | 2 W/m² | - |
| 1777639173 | 15° C | 99% | 1012.9 hPa | 0 mm | - | 1 W/m² | - |
| 1777638870 | 15° C | 99% | 1013.1 hPa | 0 mm | - | 0 W/m² | - |
| 1777638565 | 15° C | 99% | 1012.7 hPa | 0 mm | - | 0 W/m² | - |
| 1777638262 | 15° C | 99% | 1012.1 hPa | 0 mm | - | 2 W/m² | - |
| 1777637958 | 15° C | 99% | 1012.5 hPa | 0 mm | - | 2 W/m² | - |
| 1777637655 | 15° C | 99% | 1012.2 hPa | 0 mm | - | 2 W/m² | - |
| 1777637352 | 15° C | 99% | 1012.4 hPa | 0 mm | - | 0 W/m² | - |
| 1777637049 | 15° C | 99% | 1012.4 hPa | 0 mm | - | 0 W/m² | - |
| 1777636744 | 15° C | 99% | 1012 hPa | 0 mm | - | 0 W/m² | - |
| 1777636441 | 15° C | 99% | 1010.6 hPa | 1.78 mm | - | 0 W/m² | - |
* Rain latest hour (hover to see other rain measurements)
** Current wind speed in m/s (hover to see current wind gust speed)